Greenwood Leflore Airport
KGWO : now visible

Airfield :











YOU CAN JOIN US ON...

 
LOGIN :

Register | Disclaimer

   EN    FR    IT 

 









Legend :    VFR   Marginal VFR   IFR   Intensive IFR   Very Intensive IFR
Visi :
Ceiling :
>= 8 km
>= 3000ft
5 to 8 km
1000 to 3000 ft
1500m to 5 km
500 to 1000 ft
800 to 1500m
200 to 500 ft
< 800m
< 200 ft
Symbols :   Thunderstorms  Fog  Heavy snow  Heavy precipitations  Wind > 20 kt






- Airport Elevation : 162 ft


KGWO - Greenwood Leflore

CURRENT METAR :
  • 191045Z AUTO VRB03KT 10SM VCTS SCT007 OVC015 24/22 A2999 RMK AO2 LTG DSNT N AND NW RAB0959E16 P0001 T02390217

EXPIRED METARs :
  • 191034Z AUTO 11007KT 10SM SCT007 OVC016 24/22 A2999 RMK AO2 LTG DSNT NW-NE RAB0959E16 P0001 T02390217
  • 191014Z AUTO 10006KT 10SM -RA FEW007 BKN011 OVC016 24/22 A2998 RMK AO2 LTG DSNT W-NE RAB0959 P0001 T02390217
  • 191002Z AUTO 11005KT 10SM VCTS -RA SCT005 BKN010 OVC016 24/22 A2998 RMK AO2 LTG DSNT NW-NE RAB0959 P0001 T02390217
  • 190953Z AUTO 09003KT 10SM VCTS SCT005 BKN015 OVC021 24/22 A2998 RMK AO2 LTG DSNT N AND NW RAB14E33 SLP151 P0002 T02390217
  • 190937Z AUTO 14003KT 10SM VCTS BKN006 OVC013 24/22 A2999 RMK AO2 LTG DSNT N AND NW RAB14E33 P0002 T02390222
  • 190906Z AUTO 09006KT 10SM FEW008 BKN014 OVC019 24/22 A2998 RMK AO2 LTG DSNT N AND NW T02390217
  • 190858Z AUTO 10004KT 10SM FEW008 BKN016 OVC021 24/22 A2998 RMK AO2 T02390217
  • 190829Z AUTO 08006KT 10SM BKN013 BKN030 OVC045 24/22 A2999 RMK AO2 T02390217

TAF KGWO
Valid from the 19 at 09:00 until the 20 at 06:00 UTC


190834Z 1909/2006 13004KT P6SM VCSH BKN015
FM191200 13004KT P6SM VCSH OVC007
FM191500 14008KT P6SM VCSH BKN015
FM192000 10007KT P6SM VCTS OVC050CB
FM192300 11006KT P6SM OVC050
KZME FIR / North America



MET'MAP, your aeronautical weather chart ! - Copyright ORBIFLY December 2007 - Disclaimer

ORBIFLY MET'MAP TEAM :

Programming & Development : Alexandra Zaïnal
Concept & original design : Baudouin d'Aumeries
Assistance for programming : Marc-Olivier Méhu
Technical & hardware support : Manuel Goepfert

Contact : metmap@orbifly.com




SOURCES & CREDITS :

   NOAA       Earth
Advisory